Glasgow, Montana
Current Conditions -  °F | °C
As of 5:53 AM on Saturday 22 Nov 2014 (Local Time) from KGGW Reporting Station
Overcast Overcast  
Wind Chill: -4°   Ceiling: 8000
Heat Index:   Visibility: 10mi
Dew Point: -2°   Wind: 13mph
Humidity: 79%   Direction: 120°ESE
Pressure: 29.34"   Gusts: NA
Location:  48.2°N, 106.64°W
Report Text: KGGW 221253Z AUTO 12011KT 10SM OVC080 01/M02 A2934 RMK AO2 SLP955 T00111022
Loading
Personal Weather Stations






























Interactive Weather Map New forecast layout! Learn more

10-Day Weather Forecast

Advertisements
Track Severe Weather on mobile